Ilo, Peru

12:33 AM -05 en Mayo 30, 2017 (GMT -0500)
Rodriguez Ballon | | Change Station

Alt 8268 ft 16.32 °S, 71.55 °W | Updated 33 minutes ago

Nublado
Nublado
54 ° F
Sensación térmica 54 ° F
N
9
Viento Variable Viento desde Norte

Hoy
Alta -- | Baja -- ° F
--% Posibilidad de precipitaciones
Ayer
Alta -- | Baja -- ° F
Precip. -- pul
Presión 30.48 pul
Visibilidad 6.2 Millas
Nubes Nublado 8000 ft
Punto de rocío 43 ° F
Humedad 67%
Precipitaciones 0.00 pul
Espesor de la nieve No disponible.
6:05 AM 5:17 PM
Creciente, 26% visible
METAR SPQU 300500Z 36008KT 9999 OVC080 12/06 Q1032 RMK PP000
Presión 30.48 pul
Visibilidad 6.2 Millas
Nubes Nublado 8000 ft
Punto de rocío 43 ° F
Humedad 67%
Precipitaciones 0.00 pul
Espesor de la nieve No disponible.
6:05 AM 5:17 PM
Creciente, 26% visible
METAR SPQU 300500Z 36008KT 9999 OVC080 12/06 Q1032 RMK PP000

Get Severe Weather Alerts

Thanks for signing up!

Be on the lookout for a verification email in your inbox.

You'll start receiving the daily forecast at 6 AM.

×

10-Day Weather Forecast

No radar image for this location.
×

Almanac

Astronomía

May. 30, 2017 Salida Puesta
Hora real
Crepúsculo civil
Crepúsculo náutico
Crepúsculo astronómico
Luna
Horas de luz
Horas de luz
Tomorrow will be .
, % of the Moon is Illuminated

Extremos de hoy

Máximos del país Bajas del país

Community

WunderPhotos

Category 6

Welcome to Category 6. This is the collective home for Weather Underground's featured writeups by Dr. Jeff Masters (right), Bob Henson (left), Chris Burt, and other regular contributors.

Nearby

Calidad del aire

  Calidad del aire Índice AQ Contaminante
Not available.

Grosos de nieve

Estación Profundido Altura

Actividad de terremotos

Ciudad Distance Mag. Tiempo y dato
Magnitud mínima muestra es 2,5.

Temperaturas de aguas costeras

Lugar Temperatura

Stations

Estaciones meteorológicas cercanas

Ubicación de la estación Temp. Vientos helados Punto de rocío Humedad Viento Precip. Alt Actualizado Tipo